sim
Sign-in with your pilot id or email,
or register
Callsign
Passwort

Schedule Details

Flight Number: OEO5871
Departure: Hannover Langenhagen Airport (EDDV) at 06:05
Arrival: Fuerteventura Airport (GCFV) at 11:15

Weather Information
Getting current METAR information for EDDV 212150Z 09006KT CAVOK 12/01 Q1018
Getting current METAR information for GCFV 212130Z 34010KT 300V360 9999 SCT029 19/13 Q1015

Schedule Frequency

Route Map